Hawley, MN (56549)

12:15 AM CDT on May 01, 2017 (GMT -0500)
Fig Lake | | Change Station

Elev 1411 ft 46.80 °N, 96.12 °W | Updated 37 seconds ago

Partly Cloudy
Partly Cloudy
46.2 °F
Feels Like 46 °F
N
2.0
Wind Variable Wind from ENE
Gusts 10.0 mph

Today
High -- | Low -- °F
--% Chance of Precip.
Yesterday
High -- | Low -- °F
Precip. -- in
Pressure 29.83 in
Visibility 10.0 miles
Clouds Clear
Windchill 46 °F
Dew Point 23 °F
Humidity 39%
Rainfall 0.00 in
Snow Depth Not available.
6:09 AM 8:35 PM
Waxing Crescent, 29% visible
METAR KJKJ 010454Z AUTO 00000KT 10SM CLR 06/M02 A2983 RMK AO2
Pressure 29.83 in
Visibility 10.0 miles
Clouds Clear
Windchill 46 °F
Dew Point 23 °F
Humidity 39%
Rainfall 0.00 in
Snow Depth Not available.
6:09 AM 8:35 PM
Waxing Crescent, 29% visible
METAR KJKJ 010454Z AUTO 00000KT 10SM CLR 06/M02 A2983 RMK AO2

Get Severe Weather Alerts

Thanks for signing up!

Be on the lookout for a verification email in your inbox.

You'll start receiving the daily forecast at 8 AM.

×

10-Day Weather Forecast

Almanac

Astronomy

May. 01, 2017 Rise Set
Actual Time
Civil Twilight
Nautical Twilight
Astronomical Twilight
Moon
Length of Visible Light
Length of Day
Tomorrow will be .
, % of the Moon is Illuminated

Today's Extremes

State Highs State Lows

Community

WunderPhotos

WunderBlog® & News

Nearby

Air Quality

  Air Quality AQ Index Pollutant
Not available.

Snow Depth

Station Depth Elevation

Earthquake Activity

City Distance Mag. Time & Date
Minimum magnitude displayed is 2.5.

Coastal Water Temperatures

Place Temperature

Stations

Nearby Weather Stations

Station Location Temp. Windchill Dew Point Humidity Wind Precip. Elev Updated Type
                   

Watches & Warnings

There are currently no watches in effect.